Time;durP1;ratioP1;P1;durP2;ratioP2;P2;SDS_P1;SDS_P2;PMS_P1;PMS_P2;Temp;Humidity;BMP_temperature;BMP_pressure;BME280_temperature;BME280_humidity;BME280_pressure;Samples;Min_cycle;Max_cycle;Signal;HPM_P1;HPM_P2
2022/08/29 00:02:10;;;;;;;11.03;2.23;;;17.40;1.00;;;;;;5070957;28;20972;-77
2022/08/29 00:05:10;;;;;;;8.77;2.27;;;17.40;1.00;;;;;;5067785;28;20748;-77
2022/08/29 00:07:40;;;;;;;4.57;1.80;;;17.40;1.00;;;;;;5067749;28;20796;-77
2022/08/29 00:10:40;;;;;;;16.63;3.20;;;17.40;1.00;;;;;;5054745;28;20955;-77
2022/08/29 00:13:40;;;;;;;4.53;1.63;;;17.40;1.00;;;;;;5067557;28;20698;-77
2022/08/29 00:16:40;;;;;;;4.00;1.43;;;17.40;1.00;;;;;;5053716;28;20785;-77
2022/08/29 00:19:40;;;;;;;11.17;2.50;;;17.40;1.00;;;;;;5052922;28;20411;-77
2022/08/29 00:22:10;;;;;;;6.10;1.77;;;17.30;1.00;;;;;;5049290;28;20396;-77
2022/08/29 00:24:40;;;;;;;8.87;2.07;;;17.30;1.00;;;;;;5059385;28;20769;-77
2022/08/29 00:27:28;;;;;;;11.53;2.70;;;17.40;1.00;;;;;;5054287;28;20367;-77
2022/08/29 00:30:11;;;;;;;3.00;1.70;;;17.30;1.00;;;;;;5063420;28;20455;-77
2022/08/29 00:33:10;;;;;;;8.90;2.50;;;17.30;1.00;;;;;;5067083;28;20446;-77
2022/08/29 00:35:42;;;;;;;7.20;2.50;;;17.30;1.00;;;;;;5053725;28;20739;-77
2022/08/29 00:38:14;;;;;;;15.27;2.10;;;17.30;1.00;;;;;;5059810;28;20403;-77
2022/08/29 00:40:43;;;;;;;3.37;1.70;;;17.20;1.00;;;;;;5039627;28;20412;-77
2022/08/29 00:43:09;;;;;;;5.83;1.90;;;17.20;1.00;;;;;;5033474;28;20453;-77
2022/08/29 00:45:41;;;;;;;3.17;1.30;;;17.20;1.00;;;;;;5020615;28;20431;-77
2022/08/29 00:48:11;;;;;;;5.47;1.93;;;17.20;1.00;;;;;;5046249;28;20494;-77
2022/08/29 00:50:46;;;;;;;7.53;2.23;;;17.20;1.00;;;;;;5036171;28;20408;-77
2022/08/29 00:53:38;;;;;;;18.83;3.50;;;17.10;1.00;;;;;;5053255;28;20393;-77
2022/08/29 00:56:13;;;;;;;6.67;2.17;;;17.10;1.00;;;;;;5029138;28;20510;-77
2022/08/29 00:59:28;;;;;;;33.67;6.40;;;17.10;1.00;;;;;;5040452;28;20391;-77
2022/08/29 01:02:06;;;;;;;16.10;3.33;;;17.10;1.00;;;;;;5042344;28;20408;-77
2022/08/29 01:04:52;;;;;;;9.37;3.73;;;17.10;1.00;;;;;;5037476;28;20459;-77
2022/08/29 01:07:19;;;;;;;9.37;2.73;;;17.10;1.00;;;;;;5052425;28;20419;-77
2022/08/29 01:09:45;;;;;;;10.90;2.60;;;17.10;1.00;;;;;;5040780;28;20954;-72
2022/08/29 01:12:15;;;;;;;5.03;1.80;;;17.00;1.00;;;;;;5027913;28;20438;-72
2022/08/29 01:14:47;;;;;;;7.43;3.07;;;17.00;1.00;;;;;;5029150;28;20418;-72
2022/08/29 01:17:18;;;;;;;5.70;2.40;;;16.90;1.00;;;;;;5018420;28;20395;-72
2022/08/29 01:19:56;;;;;;;6.00;2.13;;;16.90;1.00;;;;;;5040731;28;20424;-72
2022/08/29 01:22:28;;;;;;;4.90;2.10;;;16.90;1.00;;;;;;5036747;28;20436;-72
2022/08/29 01:25:15;;;;;;;6.47;1.73;;;16.90;1.00;;;;;;5037446;28;20776;-77
2022/08/29 01:28:30;;;;;;;4.13;1.63;;;16.90;1.00;;;;;;5043647;28;20959;-77
2022/08/29 01:31:15;;;;;;;6.33;1.67;;;16.90;1.00;;;;;;5002269;28;20420;-77
2022/08/29 01:37:40;;;;;;;8.00;2.10;;;16.80;1.00;;;;;;4989189;28;21002;-77
2022/08/29 01:40:11;;;;;;;7.83;1.97;;;16.70;1.00;;;;;;5004434;28;20431;-77
2022/08/29 01:42:40;;;;;;;7.70;2.20;;;16.70;1.00;;;;;;5000006;28;20430;-77
2022/08/29 01:45:11;;;;;;;2.03;1.23;;;16.70;1.00;;;;;;5005378;28;20395;-77
2022/08/29 01:47:40;;;;;;;6.40;1.67;;;16.70;1.00;;;;;;4998724;28;20760;-77
2022/08/29 01:50:11;;;;;;;3.37;1.50;;;16.70;1.00;;;;;;5006005;28;20499;-77
2022/08/29 01:52:42;;;;;;;7.60;1.73;;;16.70;1.00;;;;;;5001611;28;20835;-77
2022/08/29 01:55:08;;;;;;;4.47;1.60;;;16.70;1.00;;;;;;5003777;28;20404;-72
2022/08/29 01:57:37;;;;;;;22.23;2.10;;;16.70;1.00;;;;;;4995012;28;20480;-72
2022/08/29 02:00:04;;;;;;;7.67;2.90;;;16.60;1.00;;;;;;4996310;28;20525;-72
2022/08/29 02:02:42;;;;;;;4.93;2.70;;;16.60;1.00;;;;;;4994251;28;20423;-72
2022/08/29 02:05:08;;;;;;;5.47;2.13;;;16.60;1.00;;;;;;4996646;28;20448;-72
2022/08/29 02:07:34;;;;;;;3.33;2.13;;;16.60;1.00;;;;;;5018202;28;20997;-72
2022/08/29 02:10:10;;;;;;;2.10;1.40;;;16.60;1.00;;;;;;5042693;28;20982;-77
2022/08/29 02:12:42;;;;;;;3.87;1.60;;;16.60;1.00;;;;;;5027876;28;20808;-77
2022/08/29 02:15:12;;;;;;;2.90;1.60;;;16.60;1.00;;;;;;5047305;28;20746;-77
2022/08/29 02:17:40;;;;;;;7.00;1.57;;;16.60;1.00;;;;;;5037850;28;20404;-77
2022/08/29 02:20:22;;;;;;;10.30;1.60;;;16.50;1.00;;;;;;5049973;28;20862;-77
2022/08/29 02:22:52;;;;;;;6.43;1.80;;;16.50;1.00;;;;;;5038923;28;20435;-77
2022/08/29 02:28:12;;;;;;;26.10;1.80;;;16.40;1.00;;;;;;5042739;28;20498;-72
2022/08/29 02:30:41;;;;;;;4.60;1.90;;;16.40;1.00;;;;;;5036338;28;20415;-72
2022/08/29 02:33:07;;;;;;;11.03;1.80;;;16.40;1.00;;;;;;5035362;28;20418;-72
2022/08/29 02:35:34;;;;;;;11.73;1.70;;;16.40;1.00;;;;;;5036135;28;20802;-72
2022/08/29 02:38:05;;;;;;;5.33;1.60;;;16.30;1.00;;;;;;5040595;28;20429;-72
2022/08/29 02:40:31;;;;;;;6.40;2.13;;;16.30;1.00;;;;;;5036612;28;20409;-72
2022/08/29 02:42:57;;;;;;;4.30;1.70;;;16.30;1.00;;;;;;5035382;28;20463;-72
2022/08/29 02:45:23;;;;;;;5.57;1.63;;;16.30;1.00;;;;;;5035983;28;20430;-72
2022/08/29 02:47:49;;;;;;;9.17;1.70;;;16.20;1.00;;;;;;5035495;28;20466;-72
2022/08/29 02:50:15;;;;;;;7.87;1.40;;;16.30;1.00;;;;;;5035655;28;20259;-71
2022/08/29 02:52:46;;;;;;;7.20;1.90;;;16.20;1.00;;;;;;5038604;28;20169;-72
2022/08/29 02:55:18;;;;;;;4.57;1.80;;;16.20;1.00;;;;;;5044547;28;20877;-72
2022/08/29 02:57:45;;;;;;;9.90;1.87;;;16.10;1.00;;;;;;5046152;28;20465;-72
2022/08/29 03:00:15;;;;;;;3.93;1.27;;;16.10;1.00;;;;;;5042036;28;20394;-72
2022/08/29 03:02:46;;;;;;;4.07;1.57;;;16.10;1.00;;;;;;5043983;28;20405;-72
2022/08/29 03:05:13;;;;;;;6.40;2.17;;;16.10;1.00;;;;;;5038056;28;20447;-72
2022/08/29 03:07:39;;;;;;;4.23;1.60;;;16.10;1.00;;;;;;5042934;28;20926;-72
2022/08/29 03:10:10;;;;;;;2.40;1.73;;;16.00;1.00;;;;;;5040216;28;20474;-77
2022/08/29 03:12:40;;;;;;;4.30;1.73;;;16.00;1.00;;;;;;5045133;28;20430;-78
2022/08/29 03:18:29;;;;;;;5.13;1.60;;;15.90;1.00;;;;;;5036601;28;20382;-78
2022/08/29 03:21:04;;;;;;;8.80;2.20;;;15.90;1.00;;;;;;5038120;28;20517;-77
2022/08/29 03:23:54;;;;;;;9.80;2.00;;;15.90;1.00;;;;;;5039907;28;20759;-77
2022/08/29 03:26:22;;;;;;;8.17;2.23;;;15.80;1.00;;;;;;5036508;28;20418;-72
2022/08/29 03:28:48;;;;;;;3.40;2.20;;;15.80;1.00;;;;;;5034018;28;20603;-72
2022/08/29 03:31:22;;;;;;;3.40;1.93;;;15.80;1.00;;;;;;5042791;28;20548;-72
2022/08/29 03:33:48;;;;;;;7.20;1.80;;;15.80;1.00;;;;;;5042192;28;20211;-72
2022/08/29 03:36:14;;;;;;;5.40;2.43;;;15.70;1.00;;;;;;5034967;28;20419;-72
2022/08/29 03:38:42;;;;;;;9.77;2.33;;;15.70;1.00;;;;;;5042463;28;20180;-72
2022/08/29 03:41:08;;;;;;;7.03;2.27;;;15.70;1.00;;;;;;5049165;28;20406;-72
2022/08/29 03:43:34;;;;;;;5.67;2.47;;;15.60;1.00;;;;;;5049345;28;20407;-72
2022/08/29 03:46:00;;;;;;;3.93;1.97;;;15.60;1.00;;;;;;5040478;28;20511;-72
2022/08/29 03:48:26;;;;;;;5.93;2.07;;;15.60;1.00;;;;;;5024637;28;20895;-72
2022/08/29 03:50:51;;;;;;;5.13;1.90;;;15.60;1.00;;;;;;5047245;28;20176;-72
2022/08/29 03:53:17;;;;;;;6.43;2.20;;;15.60;1.00;;;;;;5045418;28;20171;-72
2022/08/29 03:55:43;;;;;;;6.23;1.93;;;15.60;1.00;;;;;;5036682;28;20222;-72
2022/08/29 03:58:09;;;;;;;6.27;2.10;;;15.60;1.00;;;;;;5045752;28;20180;-72
2022/08/29 04:00:34;;;;;;;5.30;2.17;;;15.60;1.00;;;;;;5036849;28;20177;-72
2022/08/29 04:03:00;;;;;;;5.70;2.37;;;15.60;1.00;;;;;;5033961;28;20238;-72
2022/08/29 04:05:26;;;;;;;10.70;2.40;;;15.60;1.00;;;;;;5047936;28;20184;-72
2022/08/29 04:07:54;;;;;;;8.20;2.80;;;15.60;1.00;;;;;;5033375;28;20424;-72
2022/08/29 04:10:29;;;;;;;3.70;2.20;;;15.60;1.00;;;;;;5034967;28;20209;-74
2022/08/29 04:12:56;;;;;;;9.53;2.47;;;15.60;1.00;;;;;;5029512;28;20821;-72
2022/08/29 04:15:23;;;;;;;5.87;2.73;;;15.60;1.00;;;;;;5021000;28;20458;-72
2022/08/29 04:17:54;;;;;;;3.13;1.83;;;15.50;1.00;;;;;;5046813;28;20405;-72
2022/08/29 04:20:22;;;;;;;6.83;2.90;;;15.50;1.00;;;;;;5040055;28;20481;-72
2022/08/29 04:22:59;;;;;;;4.30;2.20;;;15.50;1.00;;;;;;5040670;28;20747;-72
2022/08/29 04:25:27;;;;;;;9.90;2.17;;;15.50;1.00;;;;;;5040956;28;20465;-72
2022/08/29 04:28:28;;;;;;;5.30;2.10;;;15.50;1.00;;;;;;5040981;28;20431;-77
2022/08/29 04:30:54;;;;;;;3.60;2.10;;;15.40;1.00;;;;;;5049426;28;20508;-76
2022/08/29 04:34:04;;;;;;;6.03;2.60;;;15.40;1.00;;;;;;5044676;28;20420;-78
2022/08/29 04:40:06;;;;;;;4.67;2.77;;;15.40;1.00;;;;;;5020536;28;20487;-79
2022/08/29 04:43:04;;;;;;;4.80;2.20;;;15.40;1.00;;;;;;5033097;28;20438;-80
2022/08/29 04:45:34;;;;;;;5.13;1.80;;;15.40;1.00;;;;;;5039376;28;20446;-80
2022/08/29 04:48:34;;;;;;;4.23;2.40;;;15.40;1.00;;;;;;5035604;28;20496;-80
2022/08/29 04:51:10;;;;;;;4.60;2.53;;;15.40;1.00;;;;;;5014080;28;20508;-79
2022/08/29 04:57:10;;;;;;;5.77;2.60;;;15.40;1.00;;;;;;5030921;28;20429;-79
2022/08/29 04:59:36;;;;;;;7.57;2.50;;;15.40;1.00;;;;;;5043798;28;20416;-78
2022/08/29 05:02:11;;;;;;;6.93;2.27;;;15.50;1.00;;;;;;5038356;28;20534;-78
2022/08/29 05:11:41;;;;;;;8.57;2.90;;;15.50;1.00;;;;;;5033677;28;20443;-79
2022/08/29 05:14:12;;;;;;;5.20;2.53;;;15.60;1.00;;;;;;5033723;28;20443;-78
2022/08/29 05:16:38;;;;;;;5.53;2.20;;;15.60;1.00;;;;;;5038036;28;20499;-79
2022/08/29 05:19:22;;;;;;;5.63;2.40;;;15.60;1.00;;;;;;5044138;28;20411;-78
2022/08/29 05:25:40;;;;;;;5.80;2.40;;;15.70;1.00;;;;;;5045934;28;20388;-78
2022/08/29 05:28:12;;;;;;;15.70;2.40;;;15.80;1.00;;;;;;5031210;28;20431;-79
2022/08/29 05:31:13;;;;;;;9.43;2.50;;;15.80;1.00;;;;;;5041127;28;20494;-79
2022/08/29 05:34:04;;;;;;;3.70;2.10;;;15.80;1.00;;;;;;5033324;28;20514;-78
2022/08/29 05:37:10;;;;;;;3.80;1.90;;;15.90;1.00;;;;;;5039288;28;20405;-78
2022/08/29 05:40:10;;;;;;;6.33;2.30;;;15.90;1.00;;;;;;5038354;28;20418;-78
2022/08/29 05:43:10;;;;;;;12.53;2.77;;;16.00;1.00;;;;;;5046800;28;20397;-79
2022/08/29 05:45:41;;;;;;;9.13;2.63;;;16.00;1.00;;;;;;5049172;28;20417;-80
2022/08/29 05:48:22;;;;;;;3.57;2.00;;;16.00;1.00;;;;;;5041247;28;20407;-81
2022/08/29 05:51:04;;;;;;;4.47;2.40;;;16.10;1.00;;;;;;5030930;28;20755;-80
2022/08/29 06:00:23;;;;;;;6.90;2.63;;;16.30;1.00;;;;;;5029714;28;20566;-79
2022/08/29 06:03:22;;;;;;;23.10;3.73;;;16.40;1.00;;;;;;5030552;28;20507;-79
2022/08/29 06:06:04;;;;;;;4.87;2.27;;;16.40;1.00;;;;;;5021688;28;20515;-79
2022/08/29 06:08:40;;;;;;;15.40;2.57;;;16.50;1.00;;;;;;5043062;28;20458;-80
2022/08/29 06:11:34;;;;;;;11.53;2.77;;;16.60;1.00;;;;;;5040519;28;20764;-79
2022/08/29 06:14:13;;;;;;;15.07;2.83;;;16.70;1.00;;;;;;5030009;28;20418;-78
2022/08/29 06:16:41;;;;;;;7.73;2.57;;;16.70;1.00;;;;;;5049727;28;20457;-78
2022/08/29 06:19:41;;;;;;;6.80;3.17;;;16.80;1.00;;;;;;5045837;28;20391;-78
2022/08/29 06:22:40;;;;;;;5.37;2.67;;;16.90;1.00;;;;;;5023530;28;20408;-78
2022/08/29 06:25:07;;;;;;;7.87;3.30;;;17.00;1.00;;;;;;5045706;28;20430;-76
2022/08/29 06:28:10;;;;;;;4.80;2.80;;;17.10;1.00;;;;;;5046152;28;20409;-76
2022/08/29 06:30:40;;;;;;;12.60;2.63;;;17.20;1.00;;;;;;5043707;28;20438;-76
2022/08/29 06:33:10;;;;;;;7.80;2.40;;;17.20;1.00;;;;;;5037003;28;20494;-77
2022/08/29 06:35:40;;;;;;;7.97;3.07;;;17.30;1.00;;;;;;5034185;28;20780;-77
2022/08/29 06:38:34;;;;;;;10.00;2.97;;;17.50;1.00;;;;;;5049080;28;20416;-77
2022/08/29 06:41:40;;;;;;;12.63;3.00;;;17.50;1.00;;;;;;5036223;28;20423;-77
2022/08/29 06:44:17;;;;;;;6.10;2.70;;;17.60;1.00;;;;;;5033124;28;20441;-76
2022/08/29 06:46:59;;;;;;;6.43;2.37;;;17.70;1.00;;;;;;5035125;28;20818;-79
2022/08/29 06:49:40;;;;;;;7.17;2.53;;;17.80;1.00;;;;;;5042506;28;20509;-76
2022/08/29 06:52:11;;;;;;;6.67;2.90;;;17.90;1.00;;;;;;5031370;28;20397;-76
2022/08/29 06:54:37;;;;;;;8.40;2.70;;;18.00;1.00;;;;;;5041579;28;20401;-76
2022/08/29 06:57:05;;;;;;;8.00;2.40;;;18.00;1.00;;;;;;5035477;28;20423;-76
2022/08/29 06:59:31;;;;;;;3.93;2.37;;;18.00;1.00;;;;;;5038682;28;20225;-77
2022/08/29 07:02:10;;;;;;;6.53;2.07;;;18.10;1.00;;;;;;5035241;28;20408;-76
2022/08/29 07:04:40;;;;;;;11.60;2.67;;;18.20;1.00;;;;;;5043389;28;20190;-76
2022/08/29 07:07:10;;;;;;;3.50;2.30;;;18.30;1.00;;;;;;5039649;28;20384;-76
2022/08/29 07:09:36;;;;;;;6.70;2.60;;;18.40;1.00;;;;;;5043203;28;20448;-76
2022/08/29 07:12:05;;;;;;;8.93;2.80;;;18.50;1.00;;;;;;5035400;28;20926;-76
2022/08/29 07:14:34;;;;;;;3.13;2.70;;;18.60;1.00;;;;;;5036604;28;20271;-76
2022/08/29 07:17:00;;;;;;;7.63;2.60;;;18.70;1.00;;;;;;5031565;28;20451;-76
2022/08/29 07:19:26;;;;;;;5.33;2.80;;;18.90;1.00;;;;;;5037136;28;20937;-77
2022/08/29 07:21:53;;;;;;;7.70;2.70;;;19.00;1.00;;;;;;5041843;28;20176;-76
2022/08/29 07:24:19;;;;;;;6.17;2.40;;;19.10;1.00;;;;;;5039408;28;20443;-76
2022/08/29 07:26:45;;;;;;;7.80;2.33;;;19.30;1.00;;;;;;5036822;28;20404;-77
2022/08/29 07:29:15;;;;;;;5.77;2.73;;;19.50;1.00;;;;;;5034349;28;21010;-77
2022/08/29 07:31:41;;;;;;;7.23;2.43;;;19.60;1.00;;;;;;5040752;28;20417;-77
2022/08/29 07:34:07;;;;;;;6.93;2.83;;;19.90;1.00;;;;;;5032191;28;20428;-76
2022/08/29 07:36:33;;;;;;;10.20;2.40;;;20.00;1.00;;;;;;5034238;28;20204;-77
2022/08/29 07:38:59;;;;;;;6.50;2.30;;;20.30;1.00;;;;;;5033270;28;20424;-77
2022/08/29 07:41:27;;;;;;;12.67;3.17;;;20.40;1.00;;;;;;5053460;28;20421;-77
2022/08/29 07:43:59;;;;;;;6.57;2.50;;;20.50;1.00;;;;;;5040030;28;20432;-76
2022/08/29 07:46:25;;;;;;;11.03;2.83;;;20.60;1.00;;;;;;5032337;28;20420;-77
2022/08/29 07:48:52;;;;;;;4.23;1.93;;;20.70;1.00;;;;;;5045949;28;20458;-77
2022/08/29 07:51:21;;;;;;;9.93;3.20;;;20.80;1.00;;;;;;5033833;28;20418;-77
2022/08/29 07:53:48;;;;;;;6.43;2.30;;;20.90;1.00;;;;;;5042149;28;20415;-77
2022/08/29 07:56:19;;;;;;;8.33;2.00;;;21.00;1.00;;;;;;5040948;28;20402;-77
2022/08/29 07:58:45;;;;;;;8.53;2.40;;;21.10;1.00;;;;;;5040498;28;20415;-76
2022/08/29 08:01:11;;;;;;;6.90;2.70;;;21.10;1.00;;;;;;5042862;28;20918;-77
2022/08/29 08:03:37;;;;;;;9.97;2.77;;;21.30;1.00;;;;;;5035261;28;20174;-77
2022/08/29 08:06:03;;;;;;;6.53;2.30;;;21.50;1.00;;;;;;5041801;28;20945;-77
2022/08/29 08:08:28;;;;;;;5.67;1.93;;;21.70;1.00;;;;;;5040636;28;20197;-77
2022/08/29 08:10:54;;;;;;;9.37;2.50;;;21.90;1.00;;;;;;5033816;28;20964;-76
2022/08/29 08:13:20;;;;;;;7.30;2.97;;;22.00;1.00;;;;;;5042420;28;20233;-76
2022/08/29 08:15:46;;;;;;;6.23;2.67;;;22.20;1.00;;;;;;5040983;28;20212;-77
2022/08/29 08:18:12;;;;;;;5.70;2.20;;;22.30;1.00;;;;;;5041743;28;20461;-77
2022/08/29 08:20:38;;;;;;;12.23;3.20;;;22.40;1.00;;;;;;5053331;28;20183;-77
2022/08/29 08:23:04;;;;;;;4.97;2.13;;;22.60;1.00;;;;;;5042666;28;20204;-78
2022/08/29 08:25:30;;;;;;;4.77;2.30;;;22.70;1.00;;;;;;5049836;28;20540;-77
2022/08/29 08:27:57;;;;;;;14.93;2.93;;;22.80;1.00;;;;;;5044544;28;20396;-77
2022/08/29 08:30:24;;;;;;;8.23;2.80;;;22.90;1.00;;;;;;5042457;28;20439;-77
2022/08/29 08:32:49;;;;;;;12.43;2.40;;;23.10;1.00;;;;;;5041877;28;20456;-77
2022/08/29 08:35:15;;;;;;;11.57;3.07;;;23.20;1.00;;;;;;5052549;28;20900;-77
2022/08/29 08:37:42;;;;;;;13.63;2.77;;;23.20;1.00;;;;;;5041321;28;20546;-77
2022/08/29 08:40:16;;;;;;;7.80;2.80;;;23.20;1.00;;;;;;5040044;28;20596;-77
2022/08/29 08:42:43;;;;;;;4.00;2.40;;;23.30;1.00;;;;;;5040734;28;20944;-76
2022/08/29 08:45:15;;;;;;;5.00;2.10;;;23.40;1.00;;;;;;5043446;28;20427;-76
2022/08/29 08:47:46;;;;;;;5.87;2.30;;;23.40;1.00;;;;;;5050281;28;20506;-77
2022/08/29 08:50:25;;;;;;;5.20;2.57;;;23.40;1.00;;;;;;5041598;28;20463;-76
2022/08/29 08:53:01;;;;;;;11.93;2.70;;;23.50;1.00;;;;;;5051959;28;20416;-77
2022/08/29 08:55:48;;;;;;;10.87;2.37;;;23.40;1.00;;;;;;5038628;28;20933;-77
2022/08/29 08:58:32;;;;;;;34.60;3.50;;;23.50;1.00;;;;;;5035730;28;20410;-77
2022/08/29 09:01:15;;;;;;;6.93;2.67;;;23.60;1.00;;;;;;5041828;28;20402;-77
2022/08/29 09:03:45;;;;;;;7.47;2.57;;;23.70;1.00;;;;;;5046480;28;20929;-77
2022/08/29 09:06:32;;;;;;;8.23;2.37;;;23.70;1.00;;;;;;5052566;28;20394;-77
2022/08/29 09:09:14;;;;;;;12.87;2.20;;;23.70;1.00;;;;;;5048393;28;20512;-77
2022/08/29 09:12:04;;;;;;;3.83;1.90;;;23.70;1.00;;;;;;5032558;28;20955;-77
2022/08/29 09:14:56;;;;;;;6.30;2.23;;;23.70;1.00;;;;;;5022443;28;20440;-79
2022/08/29 09:17:48;;;;;;;9.73;2.43;;;23.50;1.00;;;;;;4945222;29;20444;-79
2022/08/29 09:20:23;;;;;;;7.03;1.87;;;23.50;1.00;;;;;;4952362;29;20430;-79
2022/08/29 09:23:19;;;;;;;5.77;2.10;;;23.50;1.00;;;;;;4945761;29;20942;-77
2022/08/29 09:25:45;;;;;;;7.23;3.20;;;23.60;1.00;;;;;;4909858;29;20925;-77
2022/08/29 09:28:10;;;;;;;3.60;2.33;;;23.60;1.00;;;;;;4894906;29;20446;-80
2022/08/29 09:30:38;;;;;;;10.03;2.30;;;23.60;1.00;;;;;;4894855;29;20474;-79
2022/08/29 09:33:11;;;;;;;10.97;2.53;;;23.50;1.00;;;;;;4899125;29;20284;-80
2022/08/29 09:35:51;;;;;;;12.80;2.60;;;23.60;1.00;;;;;;4903486;29;20478;-80
2022/08/29 09:38:20;;;;;;;7.03;2.37;;;23.70;1.00;;;;;;4889695;29;20419;-79
2022/08/29 09:40:45;;;;;;;6.43;2.50;;;23.80;1.00;;;;;;4899961;29;20846;-80
2022/08/29 09:43:22;;;;;;;8.23;1.97;;;23.80;1.00;;;;;;4905994;29;20426;-80
2022/08/29 09:46:23;;;;;;;7.33;1.90;;;23.80;1.00;;;;;;4895346;29;20205;-79
2022/08/29 09:48:54;;;;;;;8.87;2.00;;;23.70;1.00;;;;;;4898419;29;20439;-80
2022/08/29 09:51:30;;;;;;;20.77;2.50;;;23.70;1.00;;;;;;4887753;29;21031;-80
2022/08/29 09:54:34;;;;;;;10.40;2.93;;;23.80;1.00;;;;;;4915934;29;20460;-79
2022/08/29 09:57:26;;;;;;;5.17;2.17;;;24.00;1.00;;;;;;4949861;28;20454;-80
2022/08/29 10:00:26;;;;;;;6.20;2.30;;;24.10;1.00;;;;;;4966349;28;20517;-79
2022/08/29 10:03:09;;;;;;;9.10;2.00;;;24.10;1.00;;;;;;4958027;28;20457;-78
2022/08/29 10:05:47;;;;;;;7.07;1.60;;;24.30;1.00;;;;;;4994792;28;20444;-78
2022/08/29 10:08:52;;;;;;;4.70;1.80;;;24.40;1.00;;;;;;4994507;28;20429;-79
2022/08/29 10:11:40;;;;;;;11.87;2.37;;;24.60;1.00;;;;;;4989887;28;20454;-79
2022/08/29 10:14:39;;;;;;;7.30;2.30;;;24.90;1.00;;;;;;5001594;28;20934;-79
2022/08/29 10:21:01;;;;;;;8.10;1.90;;;25.10;1.00;;;;;;4995154;28;20400;-79
2022/08/29 10:24:16;;;;;;;9.97;2.53;;;25.30;1.00;;;;;;5004939;28;20420;-79
2022/08/29 10:27:36;;;;;;;8.80;2.10;;;25.40;1.00;;;;;;4994821;28;20440;-79
2022/08/29 10:30:13;;;;;;;4.93;1.83;;;25.50;1.00;;;;;;4880171;29;20475;-79
2022/08/29 10:33:08;;;;;;;5.57;2.20;;;25.60;1.00;;;;;;4880484;29;20397;-80
2022/08/29 10:35:41;;;;;;;5.80;2.10;;;25.60;1.00;;;;;;4873817;29;20952;-80
2022/08/29 10:38:37;;;;;;;3.10;1.77;;;25.70;1.00;;;;;;4906935;29;20994;-80
2022/08/29 10:41:39;;;;;;;9.33;1.97;;;25.70;1.00;;;;;;4918009;29;20410;-80
2022/08/29 10:47:34;;;;;;;5.93;1.90;;;25.70;1.00;;;;;;4912640;29;20406;-80
2022/08/29 10:53:42;;;;;;;3.87;1.80;;;26.00;1.00;;;;;;4930143;29;20930;-79
2022/08/29 10:56:20;;;;;;;2.60;1.87;;;26.20;1.00;;;;;;4893093;29;20939;-78
2022/08/29 10:59:17;;;;;;;5.90;2.33;;;26.30;1.00;;;;;;4913920;29;20445;-78
2022/08/29 11:02:24;;;;;;;6.10;2.27;;;26.30;1.00;;;;;;4926269;29;20419;-80
2022/08/29 11:05:11;;;;;;;4.13;1.97;;;26.20;1.00;;;;;;4974285;28;20857;-78
2022/08/29 11:08:08;;;;;;;4.80;2.03;;;26.40;1.00;;;;;;4994005;28;20977;-80
2022/08/29 11:11:05;;;;;;;3.83;2.17;;;26.50;1.00;;;;;;4993765;28;20520;-81
2022/08/29 11:13:49;;;;;;;2.53;1.40;;;26.60;1.00;;;;;;4993876;28;20462;-75
2022/08/29 11:16:39;;;;;;;4.80;2.10;;;26.70;1.00;;;;;;5005443;28;20430;-85
2022/08/29 11:22:43;;;;;;;3.20;1.53;;;26.90;1.00;;;;;;5013366;28;20402;-82
2022/08/29 11:25:35;;;;;;;8.47;2.03;;;27.10;1.00;;;;;;4986630;28;20425;-86
2022/08/29 11:28:56;;;;;;;6.90;1.90;;;27.30;1.00;;;;;;4993104;28;20510;-83
2022/08/29 11:31:53;;;;;;;4.10;1.87;;;27.40;1.00;;;;;;4959848;28;20442;-83
2022/08/29 11:35:07;;;;;;;7.23;1.80;;;27.50;1.00;;;;;;4937883;28;20434;-83
2022/08/29 11:38:10;;;;;;;4.10;1.50;;;27.70;1.00;;;;;;4904162;29;20445;-83
2022/08/29 11:41:04;;;;;;;2.40;1.70;;;27.80;1.00;;;;;;4916820;29;20430;-84
2022/08/29 11:43:40;;;;;;;4.33;2.00;;;27.50;1.00;;;;;;4901314;29;20458;-83
2022/08/29 11:46:52;;;;;;;5.97;1.60;;;27.40;1.00;;;;;;4901856;29;20427;-78
2022/08/29 11:56:13;;;;;;;5.10;1.87;;;27.70;1.00;;;;;;4911170;29;20402;-78
2022/08/29 12:02:01;;;;;;;3.33;1.70;;;28.00;1.00;;;;;;4902562;29;20409;-83
2022/08/29 12:05:04;;;;;;;5.77;2.00;;;28.10;1.00;;;;;;4909328;28;20431;-83
2022/08/29 12:08:04;;;;;;;3.53;1.50;;;28.20;1.00;;;;;;4954825;28;20667;-83
2022/08/29 12:11:01;;;;;;;4.10;1.63;;;28.40;1.00;;;;;;4972516;28;20480;-83
2022/08/29 12:13:58;;;;;;;6.13;1.50;;;28.50;1.00;;;;;;4920375;28;20441;-83
2022/08/29 12:17:11;;;;;;;5.33;1.80;;;28.50;1.00;;;;;;4955914;28;20479;-83
2022/08/29 12:20:14;;;;;;;2.53;1.37;;;28.50;1.00;;;;;;4955793;28;20445;-83
2022/08/29 12:29:38;;;;;;;5.60;1.40;;;28.50;1.00;;;;;;4963479;28;20530;-77
2022/08/29 12:32:32;;;;;;;3.43;1.77;;;28.40;1.00;;;;;;4954015;29;20444;-77
2022/08/29 12:35:36;;;;;;;4.33;1.67;;;28.50;1.00;;;;;;4960123;28;20432;-76
2022/08/29 12:38:30;;;;;;;4.07;1.77;;;28.60;1.00;;;;;;4956853;28;20769;-77
2022/08/29 12:41:45;;;;;;;4.23;1.60;;;28.70;1.00;;;;;;4950466;28;20517;-82
2022/08/29 12:47:39;;;;;;;7.10;1.87;;;29.10;1.00;;;;;;4945166;29;20434;-77
2022/08/29 12:50:17;;;;;;;8.43;1.70;;;29.10;1.00;;;;;;4966791;28;20548;-83
2022/08/29 12:56:21;;;;;;;3.60;1.47;;;29.00;1.00;;;;;;4968191;28;20425;-83
2022/08/29 13:02:32;;;;;;;4.30;1.77;;;29.00;1.00;;;;;;4964384;28;20564;-82
2022/08/29 13:04:58;;;;;;;5.27;1.57;;;29.10;1.00;;;;;;4970425;28;20436;-81
2022/08/29 13:07:25;;;;;;;1.97;1.70;;;29.10;1.00;;;;;;4971142;28;20422;-80
2022/08/29 13:09:56;;;;;;;2.17;1.57;;;29.10;1.00;;;;;;4969779;28;20571;-80
2022/08/29 13:12:29;;;;;;;4.27;1.70;;;29.20;1.00;;;;;;4971459;28;20439;-81
2022/08/29 13:15:26;;;;;;;3.83;1.77;;;29.20;1.00;;;;;;4973595;28;20730;-81
2022/08/29 13:17:52;;;;;;;11.00;1.97;;;29.20;1.00;;;;;;4984733;28;20566;-80
2022/08/29 13:20:37;;;;;;;3.37;1.73;;;29.30;1.00;;;;;;5006967;28;20437;-81
2022/08/29 13:23:11;;;;;;;4.33;2.00;;;29.50;1.00;;;;;;5046191;28;20896;-82
2022/08/29 13:26:00;;;;;;;6.63;2.00;;;29.50;1.00;;;;;;5034841;28;20440;-81
2022/08/29 13:28:43;;;;;;;5.97;2.07;;;29.30;1.00;;;;;;5028293;28;20524;-80
2022/08/29 13:31:20;;;;;;;4.53;2.10;;;29.40;1.00;;;;;;5045633;28;20459;-79
2022/08/29 13:33:49;;;;;;;4.07;1.70;;;29.60;1.00;;;;;;5036951;28;20494;-83
2022/08/29 13:39:43;;;;;;;7.20;1.60;;;29.90;1.00;;;;;;5046839;28;20943;-82
2022/08/29 13:45:32;;;;;;;1.80;1.60;;;30.20;1.00;;;;;;5020237;28;20434;-83
2022/08/29 13:48:25;;;;;;;2.40;1.60;;;30.10;1.00;;;;;;5013961;28;20400;-79
2022/08/29 13:50:50;;;;;;;6.83;1.77;;;30.10;1.00;;;;;;5044550;28;20458;-80
2022/08/29 13:56:38;;;;;;;3.20;1.50;;;30.10;1.00;;;;;;5033040;28;20182;-79
2022/08/29 13:59:24;;;;;;;10.23;2.10;;;30.10;1.00;;;;;;5032648;28;20875;-82
2022/08/29 14:05:12;;;;;;;3.30;1.73;;;29.80;1.00;;;;;;5046131;28;20395;-80
2022/08/29 14:14:23;;;;;;;3.60;2.10;;;30.10;1.00;;;;;;5030053;28;20544;-83
2022/08/29 14:20:11;;;;;;;16.90;2.07;;;29.90;1.00;;;;;;5032852;28;20405;-81
2022/08/29 14:25:59;;;;;;;7.73;1.70;;;30.20;1.00;;;;;;5013103;28;20378;-78
2022/08/29 14:28:35;;;;;;;13.87;2.20;;;30.20;1.00;;;;;;5018119;28;20410;-78
2022/08/29 14:31:17;;;;;;;2.23;1.63;;;30.10;1.00;;;;;;5020284;28;20505;-79
2022/08/29 14:47:09;;;;;;;2.80;1.67;;;29.80;1.00;;;;;;5040841;28;20392;-82
2022/08/29 14:53:16;;;;;;;4.10;2.17;;;30.00;1.00;;;;;;5049210;28;20239;-80
2022/08/29 14:56:11;;;;;;;2.03;1.70;;;30.70;1.00;;;;;;5035959;28;20388;-80
2022/08/29 15:05:22;;;;;;;4.53;1.77;;;34.80;1.00;;;;;;5041946;28;20398;-84
2022/08/29 15:08:28;;;;;;;8.27;1.90;;;35.90;1.00;;;;;;5055714;28;20417;-84
2022/08/29 15:14:29;;;;;;;5.83;2.20;;;37.70;1.00;;;;;;5031210;28;20362;-82
2022/08/29 15:17:05;;;;;;;3.30;1.60;;;38.50;1.00;;;;;;5040894;28;20429;-82
2022/08/29 15:22:53;;;;;;;3.53;1.40;;;40.10;1.00;;;;;;5039394;28;20398;-82
2022/08/29 15:25:29;;;;;;;1.33;1.23;;;40.70;1.00;;;;;;5036368;28;20423;-84
2022/08/29 15:31:16;;;;;;;2.30;1.70;;;41.20;1.00;;;;;;5054237;28;20394;-82
2022/08/29 15:40:29;;;;;;;3.57;1.40;;;40.80;1.00;;;;;;5034995;28;20450;-82
2022/08/29 15:42:54;;;;;;;9.63;1.63;;;40.70;1.00;;;;;;5038100;28;20414;-81
2022/08/29 15:45:29;;;;;;;2.77;1.50;;;40.80;1.00;;;;;;5054624;28;20394;-80
2022/08/29 15:48:40;;;;;;;4.57;1.43;;;41.40;1.00;;;;;;5047958;28;20186;-81
2022/08/29 15:51:06;;;;;;;3.60;1.50;;;41.80;1.00;;;;;;5022630;28;20493;-82
2022/08/29 15:57:28;;;;;;;3.40;1.30;;;42.20;1.00;;;;;;5026601;28;20418;-81
2022/08/29 16:00:46;;;;;;;1.40;1.20;;;42.30;1.00;;;;;;5027985;28;20422;-80
2022/08/29 16:06:58;;;;;;;2.93;1.50;;;42.40;1.00;;;;;;5034593;28;20812;-79
2022/08/29 16:12:46;;;;;;;1.73;1.50;;;41.90;1.00;;;;;;5014616;28;20371;-81
2022/08/29 16:18:34;;;;;;;1.30;1.20;;;42.70;1.00;;;;;;5034225;28;20383;-82
2022/08/29 16:24:22;;;;;;;1.57;1.07;;;42.70;1.00;;;;;;5047702;28;20182;-82
2022/08/29 16:30:18;;;;;;;2.63;1.70;;;43.10;1.00;;;;;;5033854;28;20489;-81
2022/08/29 16:36:06;;;;;;;3.60;1.70;;;43.50;1.00;;;;;;5047646;28;20402;-80
2022/08/29 16:55:21;;;;;;;5.70;1.60;;;40.50;1.00;;;;;;5033235;28;20518;-79